sensor_id;sensor_type;location;lat;lon;timestamp;temperature;humidity
9323;DHT22;4700;48.822;9.270;2022-11-20T05:18:33;6.20;1.00
9323;DHT22;4700;48.822;9.270;2022-11-20T05:27:12;6.20;1.00
9323;DHT22;4700;48.822;9.270;2022-11-20T05:40:17;6.30;1.00
9323;DHT22;4700;48.822;9.270;2022-11-20T05:50:45;6.30;1.00
9323;DHT22;4700;48.822;9.270;2022-11-20T05:53:32;6.30;1.00
9323;DHT22;4700;48.822;9.270;2022-11-20T05:56:20;6.30;1.00
9323;DHT22;4700;48.822;9.270;2022-11-20T05:59:06;6.40;1.00
9323;DHT22;4700;48.822;9.270;2022-11-20T06:01:52;6.30;1.00
9323;DHT22;4700;48.822;9.270;2022-11-20T06:04:38;6.40;1.00
9323;DHT22;4700;48.822;9.270;2022-11-20T06:07:23;6.40;1.00
9323;DHT22;4700;48.822;9.270;2022-11-20T06:10:09;6.40;1.00
9323;DHT22;4700;48.822;9.270;2022-11-20T06:12:58;6.50;1.00
9323;DHT22;4700;48.822;9.270;2022-11-20T06:15:48;6.40;1.00
9323;DHT22;4700;48.822;9.270;2022-11-20T06:18:34;6.50;1.00
9323;DHT22;4700;48.822;9.270;2022-11-20T06:21:23;6.50;1.00
9323;DHT22;4700;48.822;9.270;2022-11-20T06:24:09;6.50;1.00
9323;DHT22;4700;48.822;9.270;2022-11-20T06:26:55;6.50;1.00
9323;DHT22;4700;48.822;9.270;2022-11-20T06:29:42;6.50;1.00
9323;DHT22;4700;48.822;9.270;2022-11-20T06:32:28;6.50;1.00
9323;DHT22;4700;48.822;9.270;2022-11-20T06:35:14;6.50;1.00
9323;DHT22;4700;48.822;9.270;2022-11-20T06:37:59;6.50;1.00
9323;DHT22;4700;48.822;9.270;2022-11-20T06:40:46;6.40;1.00
9323;DHT22;4700;48.822;9.270;2022-11-20T06:43:32;6.40;1.00
9323;DHT22;4700;48.822;9.270;2022-11-20T06:46:19;6.40;1.00
9323;DHT22;4700;48.822;9.270;2022-11-20T06:49:06;6.30;1.00
9323;DHT22;4700;48.822;9.270;2022-11-20T06:54:17;6.30;1.00
9323;DHT22;4700;48.822;9.270;2022-11-20T06:57:03;6.30;1.00
9323;DHT22;4700;48.822;9.270;2022-11-20T06:59:48;6.30;1.00
9323;DHT22;4700;48.822;9.270;2022-11-20T07:02:35;6.30;1.00
9323;DHT22;4700;48.822;9.270;2022-11-20T07:05:21;6.20;1.00
9323;DHT22;4700;48.822;9.270;2022-11-20T07:08:07;6.20;1.00
9323;DHT22;4700;48.822;9.270;2022-11-20T07:10:56;6.20;1.00
9323;DHT22;4700;48.822;9.270;2022-11-20T07:13:42;6.30;1.00
9323;DHT22;4700;48.822;9.270;2022-11-20T07:16:29;6.30;1.00
9323;DHT22;4700;48.822;9.270;2022-11-20T07:19:16;6.40;1.00
9323;DHT22;4700;48.822;9.270;2022-11-20T07:22:01;6.50;1.00
9323;DHT22;4700;48.822;9.270;2022-11-20T07:24:47;6.60;1.00
9323;DHT22;4700;48.822;9.270;2022-11-20T07:27:33;6.60;1.00
9323;DHT22;4700;48.822;9.270;2022-11-20T07:30:19;6.70;1.00
9323;DHT22;4700;48.822;9.270;2022-11-20T07:33:05;6.70;1.00
9323;DHT22;4700;48.822;9.270;2022-11-20T07:35:52;6.80;1.00
9323;DHT22;4700;48.822;9.270;2022-11-20T07:38:37;6.90;1.00
9323;DHT22;4700;48.822;9.270;2022-11-20T07:41:23;6.90;1.00
9323;DHT22;4700;48.822;9.270;2022-11-20T07:44:10;7.00;1.00
9323;DHT22;4700;48.822;9.270;2022-11-20T07:46:56;7.10;1.00
9323;DHT22;4700;48.822;9.270;2022-11-20T07:49:43;7.20;1.00
9323;DHT22;4700;48.822;9.270;2022-11-20T07:52:31;7.40;1.00
9323;DHT22;4700;48.822;9.270;2022-11-20T07:55:17;7.50;1.00
9323;DHT22;4700;48.822;9.270;2022-11-20T07:58:11;7.60;1.00
9323;DHT22;4700;48.822;9.270;2022-11-20T08:01:01;7.60;1.00
9323;DHT22;4700;48.822;9.270;2022-11-20T08:03:47;7.60;1.00
9323;DHT22;4700;48.822;9.270;2022-11-20T08:06:35;7.60;1.00
9323;DHT22;4700;48.822;9.270;2022-11-20T08:09:22;7.60;1.00
9323;DHT22;4700;48.822;9.270;2022-11-20T08:12:08;7.60;1.00
9323;DHT22;4700;48.822;9.270;2022-11-20T08:15:10;7.60;1.00
9323;DHT22;4700;48.822;9.270;2022-11-20T08:18:00;7.60;1.00
9323;DHT22;4700;48.822;9.270;2022-11-20T08:20:46;7.70;1.00
9323;DHT22;4700;48.822;9.270;2022-11-20T08:23:32;7.60;1.00
9323;DHT22;4700;48.822;9.270;2022-11-20T08:26:20;7.60;1.00
9323;DHT22;4700;48.822;9.270;2022-11-20T08:29:06;7.60;1.00
9323;DHT22;4700;48.822;9.270;2022-11-20T08:31:52;7.70;1.00
9323;DHT22;4700;48.822;9.270;2022-11-20T08:34:38;7.80;1.00
9323;DHT22;4700;48.822;9.270;2022-11-20T08:37:24;8.00;1.00
9323;DHT22;4700;48.822;9.270;2022-11-20T08:40:10;8.20;1.00
9323;DHT22;4700;48.822;9.270;2022-11-20T08:42:57;8.20;1.00
9323;DHT22;4700;48.822;9.270;2022-11-20T08:45:43;8.20;1.00
9323;DHT22;4700;48.822;9.270;2022-11-20T08:48:29;8.30;1.00
9323;DHT22;4700;48.822;9.270;2022-11-20T08:51:15;8.30;1.00
9323;DHT22;4700;48.822;9.270;2022-11-20T08:54:01;8.50;1.00
9323;DHT22;4700;48.822;9.270;2022-11-20T08:56:47;8.60;1.00
9323;DHT22;4700;48.822;9.270;2022-11-20T08:59:34;8.60;1.00
9323;DHT22;4700;48.822;9.270;2022-11-20T09:02:20;8.70;1.00
9323;DHT22;4700;48.822;9.270;2022-11-20T09:05:06;8.90;1.00
9323;DHT22;4700;48.822;9.270;2022-11-20T09:07:55;9.00;1.00
9323;DHT22;4700;48.822;9.270;2022-11-20T09:10:41;8.90;1.00
9323;DHT22;4700;48.822;9.270;2022-11-20T09:13:27;8.80;1.00
9323;DHT22;4700;48.822;9.270;2022-11-20T09:16:15;8.70;1.00
9323;DHT22;4700;48.822;9.270;2022-11-20T09:19:00;8.60;1.00
9323;DHT22;4700;48.822;9.270;2022-11-20T09:21:46;8.60;1.00
9323;DHT22;4700;48.822;9.270;2022-11-20T09:24:32;8.60;1.00
9323;DHT22;4700;48.822;9.270;2022-11-20T09:27:18;8.60;1.00
9323;DHT22;4700;48.822;9.270;2022-11-20T09:30:07;8.70;1.00
9323;DHT22;4700;48.822;9.270;2022-11-20T09:32:54;8.60;1.00
9323;DHT22;4700;48.822;9.270;2022-11-20T09:35:40;8.50;1.00
9323;DHT22;4700;48.822;9.270;2022-11-20T09:38:27;8.50;1.00
9323;DHT22;4700;48.822;9.270;2022-11-20T09:41:32;8.50;1.00
9323;DHT22;4700;48.822;9.270;2022-11-20T09:44:35;8.50;1.00
9323;DHT22;4700;48.822;9.270;2022-11-20T09:47:32;8.50;1.00
9323;DHT22;4700;48.822;9.270;2022-11-20T09:50:29;8.50;1.00
9323;DHT22;4700;48.822;9.270;2022-11-20T09:53:23;8.40;1.00
9323;DHT22;4700;48.822;9.270;2022-11-20T09:56:12;8.40;1.00
9323;DHT22;4700;48.822;9.270;2022-11-20T09:59:02;8.40;1.00
9323;DHT22;4700;48.822;9.270;2022-11-20T10:01:49;8.40;1.00
9323;DHT22;4700;48.822;9.270;2022-11-20T10:04:37;8.40;1.00
9323;DHT22;4700;48.822;9.270;2022-11-20T10:07:34;8.30;1.00
9323;DHT22;4700;48.822;9.270;2022-11-20T10:10:31;8.40;1.00
9323;DHT22;4700;48.822;9.270;2022-11-20T10:13:28;8.40;1.00
9323;DHT22;4700;48.822;9.270;2022-11-20T10:16:21;8.30;1.00
9323;DHT22;4700;48.822;9.270;2022-11-20T10:19:23;8.20;1.00
9323;DHT22;4700;48.822;9.270;2022-11-20T10:22:21;8.10;1.00
9323;DHT22;4700;48.822;9.270;2022-11-20T10:25:15;8.10;1.00
9323;DHT22;4700;48.822;9.270;2022-11-20T10:28:18;8.00;1.00
9323;DHT22;4700;48.822;9.270;2022-11-20T10:31:11;7.90;1.00
9323;DHT22;4700;48.822;9.270;2022-11-20T10:34:00;7.90;1.00
9323;DHT22;4700;48.822;9.270;2022-11-20T10:36:50;8.00;1.00
9323;DHT22;4700;48.822;9.270;2022-11-20T10:39:42;7.90;1.00
9323;DHT22;4700;48.822;9.270;2022-11-20T10:42:34;7.80;1.00
9323;DHT22;4700;48.822;9.270;2022-11-20T10:45:33;7.80;1.00
9323;DHT22;4700;48.822;9.270;2022-11-20T10:48:23;7.70;1.00
9323;DHT22;4700;48.822;9.270;2022-11-20T10:51:15;7.70;1.00
9323;DHT22;4700;48.822;9.270;2022-11-20T10:54:12;7.70;1.00
9323;DHT22;4700;48.822;9.270;2022-11-20T10:57:10;7.60;1.00
9323;DHT22;4700;48.822;9.270;2022-11-20T11:00:06;7.60;1.00
9323;DHT22;4700;48.822;9.270;2022-11-20T11:02:53;7.50;1.00
9323;DHT22;4700;48.822;9.270;2022-11-20T11:05:44;7.40;1.00
9323;DHT22;4700;48.822;9.270;2022-11-20T11:08:34;7.40;1.00
9323;DHT22;4700;48.822;9.270;2022-11-20T11:11:23;7.40;1.00
9323;DHT22;4700;48.822;9.270;2022-11-20T11:14:11;7.50;1.00
9323;DHT22;4700;48.822;9.270;2022-11-20T11:16:59;7.60;1.00
9323;DHT22;4700;48.822;9.270;2022-11-20T11:19:56;7.70;1.00
9323;DHT22;4700;48.822;9.270;2022-11-20T11:22:44;7.80;1.00
9323;DHT22;4700;48.822;9.270;2022-11-20T11:25:31;7.90;1.00
9323;DHT22;4700;48.822;9.270;2022-11-20T11:28:22;7.90;1.00
9323;DHT22;4700;48.822;9.270;2022-11-20T11:39:11;8.40;1.00
9323;DHT22;4700;48.822;9.270;2022-11-20T11:42:00;8.50;1.00
9323;DHT22;4700;48.822;9.270;2022-11-20T11:47:23;8.90;1.00
9323;DHT22;4700;48.822;9.270;2022-11-20T11:50:16;8.70;1.00
9323;DHT22;4700;48.822;9.270;2022-11-20T11:53:09;8.70;1.00
9323;DHT22;4700;48.822;9.270;2022-11-20T11:56:03;8.60;1.00
9323;DHT22;4700;48.822;9.270;2022-11-20T11:58:53;8.50;1.00
9323;DHT22;4700;48.822;9.270;2022-11-20T12:01:47;8.40;1.00
9323;DHT22;4700;48.822;9.270;2022-11-20T12:04:42;8.40;1.00
9323;DHT22;4700;48.822;9.270;2022-11-20T12:07:38;8.60;1.00
9323;DHT22;4700;48.822;9.270;2022-11-20T12:10:38;8.70;1.00
9323;DHT22;4700;48.822;9.270;2022-11-20T12:13:40;8.90;1.00
9323;DHT22;4700;48.822;9.270;2022-11-20T12:16:28;9.20;1.00
9323;DHT22;4700;48.822;9.270;2022-11-20T12:19:16;9.40;1.00
9323;DHT22;4700;48.822;9.270;2022-11-20T12:22:06;9.50;1.00
9323;DHT22;4700;48.822;9.270;2022-11-20T12:25:00;9.50;1.00
9323;DHT22;4700;48.822;9.270;2022-11-20T12:31:10;9.30;1.00
9323;DHT22;4700;48.822;9.270;2022-11-20T12:37:18;8.90;1.00
9323;DHT22;4700;48.822;9.270;2022-11-20T12:40:20;8.90;1.00
9323;DHT22;4700;48.822;9.270;2022-11-20T12:43:15;8.80;1.00
9323;DHT22;4700;48.822;9.270;2022-11-20T12:52:25;8.60;1.00
9323;DHT22;4700;48.822;9.270;2022-11-20T12:55:20;8.60;1.00
9323;DHT22;4700;48.822;9.270;2022-11-20T12:58:12;8.60;1.00
9323;DHT22;4700;48.822;9.270;2022-11-20T13:01:12;8.60;1.00
9323;DHT22;4700;48.822;9.270;2022-11-20T13:04:50;8.60;1.00
9323;DHT22;4700;48.822;9.270;2022-11-20T13:07:40;8.70;1.00
9323;DHT22;4700;48.822;9.270;2022-11-20T13:10:34;8.80;1.00
9323;DHT22;4700;48.822;9.270;2022-11-20T13:13:25;8.80;1.00
9323;DHT22;4700;48.822;9.270;2022-11-20T13:16:19;8.90;1.00
9323;DHT22;4700;48.822;9.270;2022-11-20T13:19:12;8.90;1.00
9323;DHT22;4700;48.822;9.270;2022-11-20T13:22:00;9.10;1.00
9323;DHT22;4700;48.822;9.270;2022-11-20T13:24:51;9.10;1.00
9323;DHT22;4700;48.822;9.270;2022-11-20T13:27:47;9.10;1.00
9323;DHT22;4700;48.822;9.270;2022-11-20T13:30:33;9.10;1.00
9323;DHT22;4700;48.822;9.270;2022-11-20T13:33:25;9.10;1.00
9323;DHT22;4700;48.822;9.270;2022-11-20T13:36:21;9.00;1.00
9323;DHT22;4700;48.822;9.270;2022-11-20T13:39:10;9.00;1.00
9323;DHT22;4700;48.822;9.270;2022-11-20T13:41:57;9.20;1.00
9323;DHT22;4700;48.822;9.270;2022-11-20T13:44:47;9.20;1.00
9323;DHT22;4700;48.822;9.270;2022-11-20T13:47:33;9.20;1.00
9323;DHT22;4700;48.822;9.270;2022-11-20T13:50:39;9.00;1.00
9323;DHT22;4700;48.822;9.270;2022-11-20T13:53:37;8.90;1.00
9323;DHT22;4700;48.822;9.270;2022-11-20T13:56:39;8.80;1.00
9323;DHT22;4700;48.822;9.270;2022-11-20T13:59:40;8.70;1.00
9323;DHT22;4700;48.822;9.270;2022-11-20T14:02:30;8.80;1.00
9323;DHT22;4700;48.822;9.270;2022-11-20T14:05:20;8.90;1.00
9323;DHT22;4700;48.822;9.270;2022-11-20T14:08:12;9.00;1.00
9323;DHT22;4700;48.822;9.270;2022-11-20T14:11:06;9.10;1.00
9323;DHT22;4700;48.822;9.270;2022-11-20T14:14:01;9.10;1.00
9323;DHT22;4700;48.822;9.270;2022-11-20T14:16:48;9.10;1.00
9323;DHT22;4700;48.822;9.270;2022-11-20T14:19:34;9.00;1.00
9323;DHT22;4700;48.822;9.270;2022-11-20T14:22:22;9.50;1.00
9323;DHT22;4700;48.822;9.270;2022-11-20T14:25:19;9.00;1.00
9323;DHT22;4700;48.822;9.270;2022-11-20T14:28:11;8.80;1.00
9323;DHT22;4700;48.822;9.270;2022-11-20T14:31:10;8.60;1.00
9323;DHT22;4700;48.822;9.270;2022-11-20T14:34:02;8.40;1.00
9323;DHT22;4700;48.822;9.270;2022-11-20T14:36:48;8.30;1.00
9323;DHT22;4700;48.822;9.270;2022-11-20T14:39:40;8.20;1.00
9323;DHT22;4700;48.822;9.270;2022-11-20T14:42:27;8.10;1.00
9323;DHT22;4700;48.822;9.270;2022-11-20T14:45:16;8.00;1.00
9323;DHT22;4700;48.822;9.270;2022-11-20T14:48:04;8.00;1.00
9323;DHT22;4700;48.822;9.270;2022-11-20T14:50:50;8.00;1.00
9323;DHT22;4700;48.822;9.270;2022-11-20T14:53:36;8.00;1.00
9323;DHT22;4700;48.822;9.270;2022-11-20T14:56:22;7.90;1.00
9323;DHT22;4700;48.822;9.270;2022-11-20T14:59:08;7.90;1.00
9323;DHT22;4700;48.822;9.270;2022-11-20T15:01:55;7.80;1.00
9323;DHT22;4700;48.822;9.270;2022-11-20T15:04:48;7.70;1.00
9323;DHT22;4700;48.822;9.270;2022-11-20T15:07:36;7.60;1.00
9323;DHT22;4700;48.822;9.270;2022-11-20T15:10:24;7.50;1.00
9323;DHT22;4700;48.822;9.270;2022-11-20T15:13:13;7.40;1.00
9323;DHT22;4700;48.822;9.270;2022-11-20T15:16:00;7.40;1.00
9323;DHT22;4700;48.822;9.270;2022-11-20T15:18:47;7.30;1.00
9323;DHT22;4700;48.822;9.270;2022-11-20T15:21:34;7.30;1.00
9323;DHT22;4700;48.822;9.270;2022-11-20T15:24:20;7.20;1.00
9323;DHT22;4700;48.822;9.270;2022-11-20T15:27:08;7.10;1.00
9323;DHT22;4700;48.822;9.270;2022-11-20T15:29:54;7.10;1.00
9323;DHT22;4700;48.822;9.270;2022-11-20T15:32:42;7.10;1.00
9323;DHT22;4700;48.822;9.270;2022-11-20T15:35:28;7.00;1.00
9323;DHT22;4700;48.822;9.270;2022-11-20T15:38:15;7.00;1.00
9323;DHT22;4700;48.822;9.270;2022-11-20T15:41:01;7.00;1.00
9323;DHT22;4700;48.822;9.270;2022-11-20T15:43:46;6.90;1.00
9323;DHT22;4700;48.822;9.270;2022-11-20T15:46:35;6.90;1.00
9323;DHT22;4700;48.822;9.270;2022-11-20T15:49:24;6.80;1.00
9323;DHT22;4700;48.822;9.270;2022-11-20T15:52:10;6.80;1.00
9323;DHT22;4700;48.822;9.270;2022-11-20T15:54:59;6.80;1.00
9323;DHT22;4700;48.822;9.270;2022-11-20T15:57:45;6.70;1.00
9323;DHT22;4700;48.822;9.270;2022-11-20T16:00:32;6.60;1.00
9323;DHT22;4700;48.822;9.270;2022-11-20T16:03:20;6.60;1.00
9323;DHT22;4700;48.822;9.270;2022-11-20T16:06:06;6.60;1.00
9323;DHT22;4700;48.822;9.270;2022-11-20T16:08:52;6.60;1.00
9323;DHT22;4700;48.822;9.270;2022-11-20T16:11:40;6.50;1.00
9323;DHT22;4700;48.822;9.270;2022-11-20T16:14:26;6.50;1.00
9323;DHT22;4700;48.822;9.270;2022-11-20T16:17:31;6.50;1.00
9323;DHT22;4700;48.822;9.270;2022-11-20T16:20:28;6.50;1.00
9323;DHT22;4700;48.822;9.270;2022-11-20T16:23:18;6.40;1.00
9323;DHT22;4700;48.822;9.270;2022-11-20T16:26:10;6.40;1.00
9323;DHT22;4700;48.822;9.270;2022-11-20T16:28:59;6.40;1.00
9323;DHT22;4700;48.822;9.270;2022-11-20T16:31:45;6.40;1.00
9323;DHT22;4700;48.822;9.270;2022-11-20T16:34:32;6.40;1.00
9323;DHT22;4700;48.822;9.270;2022-11-20T16:37:20;6.50;1.00
9323;DHT22;4700;48.822;9.270;2022-11-20T16:40:09;6.50;1.00
9323;DHT22;4700;48.822;9.270;2022-11-20T16:42:56;6.50;1.00
9323;DHT22;4700;48.822;9.270;2022-11-20T16:45:45;6.60;1.00
9323;DHT22;4700;48.822;9.270;2022-11-20T16:48:33;6.70;1.00
9323;DHT22;4700;48.822;9.270;2022-11-20T16:51:23;6.80;1.00
9323;DHT22;4700;48.822;9.270;2022-11-20T16:54:10;6.80;1.00
9323;DHT22;4700;48.822;9.270;2022-11-20T16:57:00;6.90;1.00
9323;DHT22;4700;48.822;9.270;2022-11-20T16:59:47;6.90;1.00
9323;DHT22;4700;48.822;9.270;2022-11-20T17:02:35;6.90;1.00
9323;DHT22;4700;48.822;9.270;2022-11-20T17:05:23;7.00;1.00
9323;DHT22;4700;48.822;9.270;2022-11-20T17:08:09;7.00;1.00
9323;DHT22;4700;48.822;9.270;2022-11-20T17:11:04;7.10;1.00
9323;DHT22;4700;48.822;9.270;2022-11-20T17:13:51;7.10;1.00
9323;DHT22;4700;48.822;9.270;2022-11-20T17:16:37;7.10;1.00
9323;DHT22;4700;48.822;9.270;2022-11-20T17:19:25;7.10;1.00
9323;DHT22;4700;48.822;9.270;2022-11-20T17:22:12;7.20;1.00
9323;DHT22;4700;48.822;9.270;2022-11-20T17:24:58;7.20;1.00
9323;DHT22;4700;48.822;9.270;2022-11-20T17:27:44;7.10;1.00
9323;DHT22;4700;48.822;9.270;2022-11-20T17:30:33;7.10;1.00
9323;DHT22;4700;48.822;9.270;2022-11-20T17:33:20;7.10;1.00
9323;DHT22;4700;48.822;9.270;2022-11-20T17:36:13;7.10;1.00
9323;DHT22;4700;48.822;9.270;2022-11-20T17:39:00;7.10;1.00
9323;DHT22;4700;48.822;9.270;2022-11-20T17:41:46;7.10;1.00
9323;DHT22;4700;48.822;9.270;2022-11-20T17:44:53;7.10;1.00
9323;DHT22;4700;48.822;9.270;2022-11-20T17:47:39;7.10;1.00
9323;DHT22;4700;48.822;9.270;2022-11-20T17:50:28;7.10;1.00
9323;DHT22;4700;48.822;9.270;2022-11-20T17:53:16;7.10;1.00
9323;DHT22;4700;48.822;9.270;2022-11-20T17:56:03;7.20;1.00
9323;DHT22;4700;48.822;9.270;2022-11-20T17:59:09;7.20;1.00
9323;DHT22;4700;48.822;9.270;2022-11-20T18:01:56;7.20;1.00
9323;DHT22;4700;48.822;9.270;2022-11-20T18:04:42;6.50;1.00
9323;DHT22;4700;48.822;9.270;2022-11-20T18:07:29;7.20;1.00
9323;DHT22;4700;48.822;9.270;2022-11-20T18:10:16;7.20;1.00
9323;DHT22;4700;48.822;9.270;2022-11-20T18:13:02;7.20;1.00
9323;DHT22;4700;48.822;9.270;2022-11-20T18:15:49;7.20;1.00
9323;DHT22;4700;48.822;9.270;2022-11-20T18:18:37;7.30;1.00
9323;DHT22;4700;48.822;9.270;2022-11-20T18:21:27;7.30;1.00
9323;DHT22;4700;48.822;9.270;2022-11-20T18:24:13;7.30;1.00
9323;DHT22;4700;48.822;9.270;2022-11-20T18:27:01;7.30;1.00
9323;DHT22;4700;48.822;9.270;2022-11-20T18:29:48;7.30;1.00
9323;DHT22;4700;48.822;9.270;2022-11-20T18:32:36;7.40;1.00
9323;DHT22;4700;48.822;9.270;2022-11-20T18:35:25;7.40;1.00
9323;DHT22;4700;48.822;9.270;2022-11-20T18:38:11;7.40;1.00
9323;DHT22;4700;48.822;9.270;2022-11-20T18:40:57;7.40;1.00
9323;DHT22;4700;48.822;9.270;2022-11-20T18:43:45;7.40;1.00
9323;DHT22;4700;48.822;9.270;2022-11-20T18:46:49;7.50;1.00
9323;DHT22;4700;48.822;9.270;2022-11-20T18:49:36;7.50;1.00
9323;DHT22;4700;48.822;9.270;2022-11-20T18:52:24;7.50;1.00
9323;DHT22;4700;48.822;9.270;2022-11-20T18:55:11;7.50;1.00
9323;DHT22;4700;48.822;9.270;2022-11-20T18:57:59;7.60;1.00
9323;DHT22;4700;48.822;9.270;2022-11-20T19:00:48;7.50;1.00
9323;DHT22;4700;48.822;9.270;2022-11-20T19:03:34;7.40;1.00
9323;DHT22;4700;48.822;9.270;2022-11-20T19:06:20;7.40;1.00
9323;DHT22;4700;48.822;9.270;2022-11-20T19:09:07;7.20;1.00
9323;DHT22;4700;48.822;9.270;2022-11-20T19:11:54;7.10;1.00
9323;DHT22;4700;48.822;9.270;2022-11-20T19:14:41;7.00;1.00
9323;DHT22;4700;48.822;9.270;2022-11-20T19:17:28;6.90;1.00
9323;DHT22;4700;48.822;9.270;2022-11-20T19:20:15;6.80;1.00
9323;DHT22;4700;48.822;9.270;2022-11-20T19:23:03;6.70;1.00
9323;DHT22;4700;48.822;9.270;2022-11-20T19:25:49;6.70;1.00
9323;DHT22;4700;48.822;9.270;2022-11-20T20:33:23;6.30;1.00
9323;DHT22;4700;48.822;9.270;2022-11-20T21:12:17;6.20;1.00
9323;DHT22;4700;48.822;9.270;2022-11-20T21:22:45;6.10;1.00
9323;DHT22;4700;48.822;9.270;2022-11-20T21:25:35;6.10;1.00
9323;DHT22;4700;48.822;9.270;2022-11-20T21:33:26;6.20;1.00
9323;DHT22;4700;48.822;9.270;2022-11-20T21:36:17;6.10;1.00
9323;DHT22;4700;48.822;9.270;2022-11-20T21:39:05;6.10;1.00
9323;DHT22;4700;48.822;9.270;2022-11-20T21:46:58;6.00;1.00
9323;DHT22;4700;48.822;9.270;2022-11-20T21:49:47;5.90;1.00
9323;DHT22;4700;48.822;9.270;2022-11-20T21:52:33;5.90;1.00
9323;DHT22;4700;48.822;9.270;2022-11-20T22:18:32;5.60;1.00
9323;DHT22;4700;48.822;9.270;2022-11-20T22:52:15;6.00;1.00
9323;DHT22;4700;48.822;9.270;2022-11-20T22:55:01;5.90;1.00
9323;DHT22;4700;48.822;9.270;2022-11-20T22:57:50;6.00;1.00
9323;DHT22;4700;48.822;9.270;2022-11-20T23:00:36;5.80;1.00
9323;DHT22;4700;48.822;9.270;2022-11-20T23:03:22;5.80;1.00
9323;DHT22;4700;48.822;9.270;2022-11-20T23:06:09;5.80;1.00
9323;DHT22;4700;48.822;9.270;2022-11-20T23:08:57;5.70;1.00
9323;DHT22;4700;48.822;9.270;2022-11-20T23:42:44;5.90;1.00
9323;DHT22;4700;48.822;9.270;2022-11-20T23:45:44;5.90;1.00
9323;DHT22;4700;48.822;9.270;2022-11-20T23:51:00;5.90;1.00
9323;DHT22;4700;48.822;9.270;2022-11-20T23:53:46;6.00;1.00
9323;DHT22;4700;48.822;9.270;2022-11-20T23:56:31;6.00;1.00
9323;DHT22;4700;48.822;9.270;2022-11-20T23:59:18;6.00;1.00
